Bainbridge, Ohio
Current Conditions -  °F | °C
As of 12:54 PM on Monday 24 Nov 2014 (Local Time) from KRZT Reporting Station
Broken Clouds Broken Clouds  
Wind Chill: 59°   Ceiling: 4800
Heat Index: 59°   Visibility: 10mi
Dew Point: 45°   Wind: 22mph
Humidity: 59%   Direction: 240°WSW
Pressure: 29.49"   Gusts: 37mph
Location:  39.23°N, 83.27°W
Report Text: KRZT 241754Z AUTO 24019G32KT 10SM SCT039 BKN048 BKN065 15/07 A2949 RMK AO2
Loading
Personal Weather Stations






























Interactive Weather Map New forecast layout! Learn more

10-Day Weather Forecast

Advertisements
Track Severe Weather on mobile